Weather at Slavonski Jelas Airfield

Public forecast

Using degrees Celsius for public forecast. Weather courtesy of forecast.io.

Closest aviation weather report (METAR) to Slavonski Jelas Airfield

Closest report is Banja Luka International Airport, 32.0 nm (59.3 km) WSW.

2024/05/19 23:00 (retrieved 27 minutes ago)

LQBK 192300Z 15004KT CAVOK 18/17 Q1011 NOSIG

Closest aviation forecast (TAF) to Slavonski Jelas Airfield

Closest forecast is Banja Luka International Airport, 32.0 nm (59.3 km) WSW.

2024/05/19 18:06 (retrieved 5 hours ago)

TAF LQBK 191700Z 1918/2018 16005KT CAVOK TX25/2014Z TN13/2004Z PROB30 TEMPO 1918/1920 VRB15KT 4000 TSRA FEW035CB BKN040 PROB30 TEMPO 2000/2006 1200 BCFG BKN003 PROB40 TEMPO 2012/2018 09015KT 4000 TSRA FEW040CB BKN045